If you wish to contribute or participate in the discussions about articles you are invited to join SKYbrary as a registered user

 Actions

Hermanos Serdán International Airport

From SKYbrary Wiki

MMPB
Airport
ICAO: MMPB – IATA: PBC
Summary
Name Hermanos Serdán International Airport
Region South America and Caribbean
Territory Mexico MX.gif
Location Hujotzingo, Puebla
Serving Puebla
Elevation 2,243.633 m
7,361 ft
7,361 ft2,243.633 m
Type medium airport
Coordinates 19° 9' 29.32" N, 98° 22' 17.21" W
Runways
Designator Length Width Surface ROPS
17/35 3600 m11,811.024 ft
45 m147.638 ft
ASP yes/yes


METAR
Observation MMPB 141445Z 00000KT 8SM SCT020 BKN200 13/09 A3036 RMK 8/502 HZY AC
Station Puebla, Pue.
Date/Time 14 November 2019 14:45:00
Wind direction
Wind speed 00 kts
Lowest cloud amount scattered clouds
Temperature 13°C
Dew point 9°C
Humidity 76%
QNH hPa
Weather condition n/a

Puebla International Airport, officially Hermanos Serdán International Airport is an international airport located in the municipalities of Tlaltenango, Huejotzingo and Juan C. Bonilla near Puebla, Puebla, Mexico. It handles national and international air traffic for the city of Puebla.

Climatology

Subtropical highland Climate (Köppen climate classification Cwb)

Maps

Terrain

Loading map...

Airport Layout

Loading map...


Accidents & Serious Incidents at or in vicinity of MMPB

None on SKYbrary